sensor_id;sensor_type;location;lat;lon;timestamp;P1;durP1;ratioP1;P2;durP2;ratioP2
14975;SDS011;7584;60.468;25.126;2024-02-23T00:00:21;5.20;;;3.20;;
14975;SDS011;7584;60.468;25.126;2024-02-23T00:02:46;5.20;;;3.90;;
14975;SDS011;7584;60.468;25.126;2024-02-23T00:05:11;4.03;;;3.07;;
14975;SDS011;7584;60.468;25.126;2024-02-23T00:07:36;6.60;;;4.03;;
14975;SDS011;7584;60.468;25.126;2024-02-23T00:10:02;4.80;;;3.40;;
14975;SDS011;7584;60.468;25.126;2024-02-23T00:12:27;5.97;;;3.40;;
14975;SDS011;7584;60.468;25.126;2024-02-23T00:14:53;5.47;;;3.40;;
14975;SDS011;7584;60.468;25.126;2024-02-23T00:17:18;6.60;;;3.30;;
14975;SDS011;7584;60.468;25.126;2024-02-23T00:19:45;4.80;;;3.50;;
14975;SDS011;7584;60.468;25.126;2024-02-23T00:22:10;4.43;;;3.30;;
14975;SDS011;7584;60.468;25.126;2024-02-23T00:24:36;5.80;;;3.30;;
14975;SDS011;7584;60.468;25.126;2024-02-23T00:27:01;5.87;;;3.00;;
14975;SDS011;7584;60.468;25.126;2024-02-23T00:29:27;5.53;;;3.43;;
14975;SDS011;7584;60.468;25.126;2024-02-23T00:31:52;8.70;;;3.60;;
14975;SDS011;7584;60.468;25.126;2024-02-23T00:34:17;5.10;;;3.33;;
14975;SDS011;7584;60.468;25.126;2024-02-23T00:36:43;6.40;;;3.57;;
14975;SDS011;7584;60.468;25.126;2024-02-23T00:39:09;9.77;;;3.47;;
14975;SDS011;7584;60.468;25.126;2024-02-23T00:41:35;5.80;;;3.70;;
14975;SDS011;7584;60.468;25.126;2024-02-23T00:44:00;6.83;;;3.20;;
14975;SDS011;7584;60.468;25.126;2024-02-23T00:46:26;5.70;;;3.67;;
14975;SDS011;7584;60.468;25.126;2024-02-23T00:48:51;9.60;;;3.53;;
14975;SDS011;7584;60.468;25.126;2024-02-23T00:51:16;6.43;;;3.20;;
14975;SDS011;7584;60.468;25.126;2024-02-23T00:53:42;4.27;;;3.10;;
14975;SDS011;7584;60.468;25.126;2024-02-23T00:56:07;7.80;;;3.37;;
14975;SDS011;7584;60.468;25.126;2024-02-23T00:58:32;5.20;;;3.07;;
14975;SDS011;7584;60.468;25.126;2024-02-23T01:00:58;7.80;;;3.20;;
14975;SDS011;7584;60.468;25.126;2024-02-23T01:03:24;7.47;;;4.07;;
14975;SDS011;7584;60.468;25.126;2024-02-23T01:05:49;8.00;;;4.13;;
14975;SDS011;7584;60.468;25.126;2024-02-23T01:08:14;6.20;;;3.53;;
14975;SDS011;7584;60.468;25.126;2024-02-23T01:10:40;5.67;;;2.93;;
14975;SDS011;7584;60.468;25.126;2024-02-23T01:13:05;5.00;;;3.47;;
14975;SDS011;7584;60.468;25.126;2024-02-23T01:15:30;5.83;;;3.73;;
14975;SDS011;7584;60.468;25.126;2024-02-23T01:17:56;6.13;;;3.40;;
14975;SDS011;7584;60.468;25.126;2024-02-23T01:20:21;5.67;;;2.80;;
14975;SDS011;7584;60.468;25.126;2024-02-23T01:22:47;8.17;;;3.87;;
14975;SDS011;7584;60.468;25.126;2024-02-23T01:25:12;7.50;;;3.47;;
14975;SDS011;7584;60.468;25.126;2024-02-23T01:27:37;6.03;;;3.20;;
14975;SDS011;7584;60.468;25.126;2024-02-23T01:30:03;5.73;;;3.23;;
14975;SDS011;7584;60.468;25.126;2024-02-23T01:32:28;4.93;;;2.80;;
14975;SDS011;7584;60.468;25.126;2024-02-23T01:34:54;4.20;;;3.13;;
14975;SDS011;7584;60.468;25.126;2024-02-23T01:37:19;6.00;;;3.00;;
14975;SDS011;7584;60.468;25.126;2024-02-23T01:39:44;5.17;;;3.03;;
14975;SDS011;7584;60.468;25.126;2024-02-23T01:42:09;5.57;;;2.97;;
14975;SDS011;7584;60.468;25.126;2024-02-23T01:44:35;7.77;;;3.40;;
14975;SDS011;7584;60.468;25.126;2024-02-23T01:47:00;6.83;;;3.40;;
14975;SDS011;7584;60.468;25.126;2024-02-23T01:49:25;6.07;;;3.30;;
14975;SDS011;7584;60.468;25.126;2024-02-23T01:51:57;5.30;;;3.27;;
14975;SDS011;7584;60.468;25.126;2024-02-23T01:54:23;4.73;;;2.83;;
14975;SDS011;7584;60.468;25.126;2024-02-23T01:56:49;6.57;;;3.47;;
14975;SDS011;7584;60.468;25.126;2024-02-23T01:59:15;7.30;;;3.63;;
14975;SDS011;7584;60.468;25.126;2024-02-23T02:01:42;5.27;;;3.20;;
14975;SDS011;7584;60.468;25.126;2024-02-23T02:04:08;7.13;;;3.63;;
14975;SDS011;7584;60.468;25.126;2024-02-23T02:06:33;7.73;;;3.70;;
14975;SDS011;7584;60.468;25.126;2024-02-23T02:08:58;5.40;;;3.70;;
14975;SDS011;7584;60.468;25.126;2024-02-23T02:11:23;5.47;;;2.83;;
14975;SDS011;7584;60.468;25.126;2024-02-23T02:13:49;5.07;;;3.00;;
14975;SDS011;7584;60.468;25.126;2024-02-23T02:16:14;5.60;;;3.20;;
14975;SDS011;7584;60.468;25.126;2024-02-23T02:18:39;6.47;;;3.37;;
14975;SDS011;7584;60.468;25.126;2024-02-23T02:21:04;6.90;;;3.10;;
14975;SDS011;7584;60.468;25.126;2024-02-23T02:23:30;5.50;;;3.50;;
14975;SDS011;7584;60.468;25.126;2024-02-23T02:25:55;5.07;;;2.77;;
14975;SDS011;7584;60.468;25.126;2024-02-23T02:28:21;7.73;;;3.97;;
14975;SDS011;7584;60.468;25.126;2024-02-23T02:30:48;5.47;;;3.43;;
14975;SDS011;7584;60.468;25.126;2024-02-23T02:33:13;5.70;;;3.00;;
14975;SDS011;7584;60.468;25.126;2024-02-23T02:35:38;4.90;;;3.37;;
14975;SDS011;7584;60.468;25.126;2024-02-23T02:38:04;7.20;;;4.07;;
14975;SDS011;7584;60.468;25.126;2024-02-23T02:40:29;6.33;;;3.67;;
14975;SDS011;7584;60.468;25.126;2024-02-23T02:42:54;8.37;;;4.33;;
14975;SDS011;7584;60.468;25.126;2024-02-23T02:45:19;6.63;;;4.17;;
14975;SDS011;7584;60.468;25.126;2024-02-23T02:47:45;7.77;;;4.70;;
14975;SDS011;7584;60.468;25.126;2024-02-23T02:50:10;7.10;;;4.40;;
14975;SDS011;7584;60.468;25.126;2024-02-23T02:52:35;8.37;;;4.40;;
14975;SDS011;7584;60.468;25.126;2024-02-23T02:55:01;9.10;;;4.80;;
14975;SDS011;7584;60.468;25.126;2024-02-23T02:57:26;8.17;;;4.53;;
14975;SDS011;7584;60.468;25.126;2024-02-23T02:59:51;7.40;;;4.67;;
14975;SDS011;7584;60.468;25.126;2024-02-23T03:02:17;7.40;;;4.53;;
14975;SDS011;7584;60.468;25.126;2024-02-23T03:04:48;11.97;;;5.27;;
14975;SDS011;7584;60.468;25.126;2024-02-23T03:07:14;9.00;;;5.13;;
14975;SDS011;7584;60.468;25.126;2024-02-23T03:09:39;9.00;;;5.20;;
14975;SDS011;7584;60.468;25.126;2024-02-23T03:12:05;9.40;;;5.63;;
14975;SDS011;7584;60.468;25.126;2024-02-23T03:14:30;8.27;;;5.03;;
14975;SDS011;7584;60.468;25.126;2024-02-23T03:16:55;9.90;;;5.30;;
14975;SDS011;7584;60.468;25.126;2024-02-23T03:19:20;8.13;;;4.87;;
14975;SDS011;7584;60.468;25.126;2024-02-23T03:21:48;11.10;;;5.63;;
14975;SDS011;7584;60.468;25.126;2024-02-23T03:24:13;9.20;;;5.03;;
14975;SDS011;7584;60.468;25.126;2024-02-23T03:26:38;9.23;;;5.13;;
14975;SDS011;7584;60.468;25.126;2024-02-23T03:29:04;9.23;;;5.27;;
14975;SDS011;7584;60.468;25.126;2024-02-23T03:31:29;10.50;;;5.27;;
14975;SDS011;7584;60.468;25.126;2024-02-23T03:33:54;11.27;;;5.80;;
14975;SDS011;7584;60.468;25.126;2024-02-23T03:36:20;9.50;;;5.47;;
14975;SDS011;7584;60.468;25.126;2024-02-23T03:38:46;7.83;;;5.10;;
14975;SDS011;7584;60.468;25.126;2024-02-23T03:41:11;10.60;;;5.53;;
14975;SDS011;7584;60.468;25.126;2024-02-23T03:43:37;8.60;;;5.27;;
14975;SDS011;7584;60.468;25.126;2024-02-23T03:46:03;8.07;;;5.93;;
14975;SDS011;7584;60.468;25.126;2024-02-23T03:48:28;7.90;;;5.37;;
14975;SDS011;7584;60.468;25.126;2024-02-23T03:50:53;12.10;;;6.07;;
14975;SDS011;7584;60.468;25.126;2024-02-23T03:53:19;12.87;;;6.20;;
14975;SDS011;7584;60.468;25.126;2024-02-23T03:55:44;14.67;;;5.80;;
14975;SDS011;7584;60.468;25.126;2024-02-23T03:58:10;8.27;;;5.70;;
14975;SDS011;7584;60.468;25.126;2024-02-23T04:00:35;9.27;;;6.20;;
14975;SDS011;7584;60.468;25.126;2024-02-23T04:03:00;9.10;;;5.90;;
14975;SDS011;7584;60.468;25.126;2024-02-23T04:05:25;11.03;;;6.30;;
14975;SDS011;7584;60.468;25.126;2024-02-23T04:07:51;11.43;;;6.07;;
14975;SDS011;7584;60.468;25.126;2024-02-23T04:10:16;10.87;;;6.00;;
14975;SDS011;7584;60.468;25.126;2024-02-23T04:12:42;9.70;;;6.37;;
14975;SDS011;7584;60.468;25.126;2024-02-23T04:15:08;12.47;;;6.03;;
14975;SDS011;7584;60.468;25.126;2024-02-23T04:17:33;12.13;;;5.80;;
14975;SDS011;7584;60.468;25.126;2024-02-23T04:20:00;14.97;;;6.87;;
14975;SDS011;7584;60.468;25.126;2024-02-23T04:22:25;12.47;;;6.07;;
14975;SDS011;7584;60.468;25.126;2024-02-23T04:24:50;10.67;;;6.43;;
14975;SDS011;7584;60.468;25.126;2024-02-23T04:27:16;10.70;;;6.67;;
14975;SDS011;7584;60.468;25.126;2024-02-23T04:29:41;15.40;;;7.30;;
14975;SDS011;7584;60.468;25.126;2024-02-23T04:32:06;12.03;;;6.97;;
14975;SDS011;7584;60.468;25.126;2024-02-23T04:34:31;14.40;;;6.97;;
14975;SDS011;7584;60.468;25.126;2024-02-23T04:36:57;9.93;;;6.67;;
14975;SDS011;7584;60.468;25.126;2024-02-23T04:39:22;12.57;;;7.20;;
14975;SDS011;7584;60.468;25.126;2024-02-23T04:41:47;13.53;;;7.57;;
14975;SDS011;7584;60.468;25.126;2024-02-23T04:44:13;13.33;;;6.70;;
14975;SDS011;7584;60.468;25.126;2024-02-23T04:46:38;13.93;;;7.33;;
14975;SDS011;7584;60.468;25.126;2024-02-23T04:49:05;16.30;;;8.33;;
14975;SDS011;7584;60.468;25.126;2024-02-23T04:51:30;12.00;;;6.57;;
14975;SDS011;7584;60.468;25.126;2024-02-23T04:53:55;11.23;;;5.93;;
14975;SDS011;7584;60.468;25.126;2024-02-23T04:56:21;19.77;;;8.30;;
14975;SDS011;7584;60.468;25.126;2024-02-23T04:58:46;13.47;;;6.80;;
14975;SDS011;7584;60.468;25.126;2024-02-23T05:01:12;12.90;;;7.50;;
14975;SDS011;7584;60.468;25.126;2024-02-23T05:03:37;14.07;;;7.37;;
14975;SDS011;7584;60.468;25.126;2024-02-23T05:06:02;12.30;;;6.77;;
14975;SDS011;7584;60.468;25.126;2024-02-23T05:08:28;16.83;;;7.53;;
14975;SDS011;7584;60.468;25.126;2024-02-23T05:10:55;17.97;;;7.77;;
14975;SDS011;7584;60.468;25.126;2024-02-23T05:13:20;11.37;;;6.60;;
14975;SDS011;7584;60.468;25.126;2024-02-23T05:15:45;12.73;;;6.97;;
14975;SDS011;7584;60.468;25.126;2024-02-23T05:18:11;11.87;;;6.80;;
14975;SDS011;7584;60.468;25.126;2024-02-23T05:20:36;12.23;;;7.83;;
14975;SDS011;7584;60.468;25.126;2024-02-23T05:23:01;14.60;;;7.17;;
14975;SDS011;7584;60.468;25.126;2024-02-23T05:25:27;16.50;;;7.63;;
14975;SDS011;7584;60.468;25.126;2024-02-23T05:27:53;13.27;;;7.30;;
14975;SDS011;7584;60.468;25.126;2024-02-23T05:30:18;14.57;;;7.47;;
14975;SDS011;7584;60.468;25.126;2024-02-23T05:32:44;11.60;;;6.87;;
14975;SDS011;7584;60.468;25.126;2024-02-23T05:35:09;13.33;;;7.17;;
14975;SDS011;7584;60.468;25.126;2024-02-23T05:37:37;13.37;;;7.30;;
14975;SDS011;7584;60.468;25.126;2024-02-23T05:40:03;18.07;;;7.83;;
14975;SDS011;7584;60.468;25.126;2024-02-23T05:42:31;14.33;;;6.87;;
14975;SDS011;7584;60.468;25.126;2024-02-23T05:44:57;16.57;;;7.57;;
14975;SDS011;7584;60.468;25.126;2024-02-23T05:47:22;13.20;;;6.73;;
14975;SDS011;7584;60.468;25.126;2024-02-23T05:49:48;16.57;;;8.60;;
14975;SDS011;7584;60.468;25.126;2024-02-23T05:52:13;12.60;;;7.80;;
14975;SDS011;7584;60.468;25.126;2024-02-23T05:54:39;11.53;;;7.20;;
14975;SDS011;7584;60.468;25.126;2024-02-23T05:57:05;14.40;;;6.83;;
14975;SDS011;7584;60.468;25.126;2024-02-23T05:59:30;15.20;;;6.37;;
14975;SDS011;7584;60.468;25.126;2024-02-23T06:01:55;9.20;;;6.20;;
14975;SDS011;7584;60.468;25.126;2024-02-23T06:04:22;11.50;;;6.77;;
14975;SDS011;7584;60.468;25.126;2024-02-23T06:06:48;11.43;;;6.60;;
14975;SDS011;7584;60.468;25.126;2024-02-23T06:09:13;13.80;;;6.63;;
14975;SDS011;7584;60.468;25.126;2024-02-23T06:11:38;10.30;;;6.30;;
14975;SDS011;7584;60.468;25.126;2024-02-23T06:14:04;13.70;;;7.20;;
14975;SDS011;7584;60.468;25.126;2024-02-23T06:16:29;13.47;;;7.00;;
14975;SDS011;7584;60.468;25.126;2024-02-23T06:18:54;12.43;;;6.40;;
14975;SDS011;7584;60.468;25.126;2024-02-23T06:21:20;12.20;;;6.80;;
14975;SDS011;7584;60.468;25.126;2024-02-23T06:23:45;9.93;;;6.67;;
14975;SDS011;7584;60.468;25.126;2024-02-23T06:26:10;13.87;;;7.20;;
14975;SDS011;7584;60.468;25.126;2024-02-23T06:28:36;17.07;;;7.53;;
14975;SDS011;7584;60.468;25.126;2024-02-23T06:31:06;12.40;;;6.50;;
14975;SDS011;7584;60.468;25.126;2024-02-23T06:33:32;12.33;;;6.50;;
14975;SDS011;7584;60.468;25.126;2024-02-23T06:35:57;11.70;;;6.17;;
14975;SDS011;7584;60.468;25.126;2024-02-23T06:38:23;10.43;;;6.33;;
14975;SDS011;7584;60.468;25.126;2024-02-23T06:40:48;12.13;;;6.60;;
14975;SDS011;7584;60.468;25.126;2024-02-23T06:43:13;10.43;;;6.50;;
14975;SDS011;7584;60.468;25.126;2024-02-23T06:45:39;11.60;;;6.17;;
14975;SDS011;7584;60.468;25.126;2024-02-23T06:48:04;10.23;;;6.00;;
14975;SDS011;7584;60.468;25.126;2024-02-23T06:50:30;8.63;;;5.83;;
14975;SDS011;7584;60.468;25.126;2024-02-23T06:52:55;10.07;;;6.60;;
14975;SDS011;7584;60.468;25.126;2024-02-23T06:55:20;10.13;;;6.03;;
14975;SDS011;7584;60.468;25.126;2024-02-23T06:57:46;10.07;;;5.67;;
14975;SDS011;7584;60.468;25.126;2024-02-23T07:00:12;9.13;;;5.60;;
14975;SDS011;7584;60.468;25.126;2024-02-23T07:02:37;9.83;;;5.33;;
14975;SDS011;7584;60.468;25.126;2024-02-23T07:05:02;8.00;;;5.43;;
14975;SDS011;7584;60.468;25.126;2024-02-23T07:07:31;7.87;;;5.20;;
14975;SDS011;7584;60.468;25.126;2024-02-23T07:09:58;7.90;;;5.37;;
14975;SDS011;7584;60.468;25.126;2024-02-23T07:12:23;10.20;;;4.63;;
14975;SDS011;7584;60.468;25.126;2024-02-23T07:14:49;8.10;;;4.90;;
14975;SDS011;7584;60.468;25.126;2024-02-23T07:17:17;10.40;;;4.93;;
14975;SDS011;7584;60.468;25.126;2024-02-23T07:19:42;7.57;;;4.60;;
14975;SDS011;7584;60.468;25.126;2024-02-23T07:22:07;7.37;;;4.83;;
14975;SDS011;7584;60.468;25.126;2024-02-23T07:24:33;7.37;;;4.73;;
14975;SDS011;7584;60.468;25.126;2024-02-23T07:26:58;7.50;;;5.03;;
14975;SDS011;7584;60.468;25.126;2024-02-23T07:29:23;12.70;;;6.17;;
14975;SDS011;7584;60.468;25.126;2024-02-23T07:31:49;13.60;;;5.93;;
14975;SDS011;7584;60.468;25.126;2024-02-23T07:34:14;9.67;;;5.63;;
14975;SDS011;7584;60.468;25.126;2024-02-23T07:36:39;9.30;;;4.73;;
14975;SDS011;7584;60.468;25.126;2024-02-23T07:39:05;9.67;;;5.50;;
14975;SDS011;7584;60.468;25.126;2024-02-23T07:41:30;11.07;;;5.80;;
14975;SDS011;7584;60.468;25.126;2024-02-23T07:43:55;8.27;;;5.00;;
14975;SDS011;7584;60.468;25.126;2024-02-23T07:46:20;9.77;;;5.17;;
14975;SDS011;7584;60.468;25.126;2024-02-23T07:48:47;6.83;;;4.60;;
14975;SDS011;7584;60.468;25.126;2024-02-23T07:51:13;12.63;;;5.03;;
14975;SDS011;7584;60.468;25.126;2024-02-23T07:53:38;11.50;;;5.50;;
14975;SDS011;7584;60.468;25.126;2024-02-23T07:56:03;12.47;;;6.17;;
14975;SDS011;7584;60.468;25.126;2024-02-23T07:58:29;12.57;;;5.40;;
14975;SDS011;7584;60.468;25.126;2024-02-23T08:00:55;10.73;;;6.13;;
14975;SDS011;7584;60.468;25.126;2024-02-23T08:03:20;10.87;;;6.43;;
14975;SDS011;7584;60.468;25.126;2024-02-23T08:05:45;11.47;;;7.00;;
14975;SDS011;7584;60.468;25.126;2024-02-23T08:08:11;10.43;;;6.20;;
14975;SDS011;7584;60.468;25.126;2024-02-23T08:10:36;16.83;;;7.13;;
14975;SDS011;7584;60.468;25.126;2024-02-23T08:13:01;13.40;;;6.17;;
14975;SDS011;7584;60.468;25.126;2024-02-23T08:15:26;9.73;;;6.03;;
14975;SDS011;7584;60.468;25.126;2024-02-23T08:17:52;13.03;;;6.27;;
14975;SDS011;7584;60.468;25.126;2024-02-23T08:20:17;13.67;;;6.27;;
14975;SDS011;7584;60.468;25.126;2024-02-23T08:22:43;16.20;;;6.03;;
14975;SDS011;7584;60.468;25.126;2024-02-23T08:25:09;11.07;;;6.47;;
14975;SDS011;7584;60.468;25.126;2024-02-23T08:27:34;11.90;;;6.60;;
14975;SDS011;7584;60.468;25.126;2024-02-23T08:29:59;12.80;;;6.30;;
14975;SDS011;7584;60.468;25.126;2024-02-23T08:32:25;8.93;;;5.57;;
14975;SDS011;7584;60.468;25.126;2024-02-23T08:34:50;10.43;;;5.60;;
14975;SDS011;7584;60.468;25.126;2024-02-23T08:37:17;7.33;;;4.83;;
14975;SDS011;7584;60.468;25.126;2024-02-23T08:39:43;10.57;;;6.17;;
14975;SDS011;7584;60.468;25.126;2024-02-23T08:42:08;9.37;;;5.60;;
14975;SDS011;7584;60.468;25.126;2024-02-23T08:44:33;12.10;;;6.60;;
14975;SDS011;7584;60.468;25.126;2024-02-23T08:46:59;12.53;;;6.50;;
14975;SDS011;7584;60.468;25.126;2024-02-23T08:49:24;10.00;;;5.50;;
14975;SDS011;7584;60.468;25.126;2024-02-23T08:51:49;8.60;;;5.53;;
14975;SDS011;7584;60.468;25.126;2024-02-23T08:54:15;11.37;;;6.13;;
14975;SDS011;7584;60.468;25.126;2024-02-23T08:56:40;9.57;;;5.50;;
14975;SDS011;7584;60.468;25.126;2024-02-23T08:59:07;8.30;;;5.27;;
14975;SDS011;7584;60.468;25.126;2024-02-23T09:01:32;9.50;;;5.30;;
14975;SDS011;7584;60.468;25.126;2024-02-23T09:03:58;9.87;;;5.37;;
14975;SDS011;7584;60.468;25.126;2024-02-23T09:06:23;7.70;;;4.03;;
14975;SDS011;7584;60.468;25.126;2024-02-23T09:08:48;7.40;;;4.50;;
14975;SDS011;7584;60.468;25.126;2024-02-23T09:11:14;8.10;;;4.53;;
14975;SDS011;7584;60.468;25.126;2024-02-23T09:13:40;8.37;;;4.53;;
14975;SDS011;7584;60.468;25.126;2024-02-23T09:16:07;8.93;;;5.00;;
14975;SDS011;7584;60.468;25.126;2024-02-23T09:18:33;8.83;;;4.63;;
14975;SDS011;7584;60.468;25.126;2024-02-23T09:20:59;7.27;;;4.77;;
14975;SDS011;7584;60.468;25.126;2024-02-23T09:23:24;7.93;;;5.20;;
14975;SDS011;7584;60.468;25.126;2024-02-23T09:25:49;8.80;;;4.73;;
14975;SDS011;7584;60.468;25.126;2024-02-23T09:28:15;6.33;;;4.13;;
14975;SDS011;7584;60.468;25.126;2024-02-23T09:30:40;6.57;;;4.57;;
14975;SDS011;7584;60.468;25.126;2024-02-23T09:33:05;8.53;;;4.33;;
14975;SDS011;7584;60.468;25.126;2024-02-23T09:35:31;8.93;;;4.77;;
14975;SDS011;7584;60.468;25.126;2024-02-23T09:37:56;11.53;;;5.27;;
14975;SDS011;7584;60.468;25.126;2024-02-23T09:40:21;8.30;;;5.33;;
14975;SDS011;7584;60.468;25.126;2024-02-23T09:42:49;8.90;;;4.70;;
14975;SDS011;7584;60.468;25.126;2024-02-23T09:45:16;9.20;;;5.17;;
14975;SDS011;7584;60.468;25.126;2024-02-23T09:47:42;8.33;;;5.13;;
14975;SDS011;7584;60.468;25.126;2024-02-23T09:50:08;9.47;;;5.50;;
14975;SDS011;7584;60.468;25.126;2024-02-23T09:52:34;9.33;;;5.50;;
14975;SDS011;7584;60.468;25.126;2024-02-23T09:55:00;12.57;;;6.60;;
14975;SDS011;7584;60.468;25.126;2024-02-23T09:57:25;11.97;;;6.73;;
14975;SDS011;7584;60.468;25.126;2024-02-23T09:59:50;10.63;;;6.00;;
14975;SDS011;7584;60.468;25.126;2024-02-23T10:02:17;13.17;;;6.10;;
14975;SDS011;7584;60.468;25.126;2024-02-23T10:04:43;15.03;;;7.07;;
14975;SDS011;7584;60.468;25.126;2024-02-23T10:07:08;16.07;;;6.30;;
14975;SDS011;7584;60.468;25.126;2024-02-23T10:09:34;9.20;;;6.60;;
14975;SDS011;7584;60.468;25.126;2024-02-23T10:11:59;15.63;;;6.43;;
14975;SDS011;7584;60.468;25.126;2024-02-23T10:14:24;11.10;;;6.90;;
14975;SDS011;7584;60.468;25.126;2024-02-23T10:16:50;15.73;;;7.50;;
14975;SDS011;7584;60.468;25.126;2024-02-23T10:19:19;11.57;;;6.80;;
14975;SDS011;7584;60.468;25.126;2024-02-23T10:21:44;11.40;;;6.73;;
14975;SDS011;7584;60.468;25.126;2024-02-23T10:24:10;13.07;;;7.27;;
14975;SDS011;7584;60.468;25.126;2024-02-23T10:26:35;13.63;;;7.03;;
14975;SDS011;7584;60.468;25.126;2024-02-23T10:29:00;17.63;;;8.30;;
14975;SDS011;7584;60.468;25.126;2024-02-23T10:31:26;12.33;;;7.00;;
14975;SDS011;7584;60.468;25.126;2024-02-23T10:33:52;12.53;;;7.30;;
14975;SDS011;7584;60.468;25.126;2024-02-23T10:36:18;13.67;;;7.90;;
14975;SDS011;7584;60.468;25.126;2024-02-23T10:38:44;14.37;;;7.50;;
14975;SDS011;7584;60.468;25.126;2024-02-23T10:41:11;13.50;;;7.50;;
14975;SDS011;7584;60.468;25.126;2024-02-23T10:43:40;14.97;;;7.13;;
14975;SDS011;7584;60.468;25.126;2024-02-23T10:46:07;14.27;;;7.30;;
14975;SDS011;7584;60.468;25.126;2024-02-23T10:48:38;9.77;;;6.50;;
14975;SDS011;7584;60.468;25.126;2024-02-23T10:51:03;15.47;;;9.00;;
14975;SDS011;7584;60.468;25.126;2024-02-23T10:53:30;12.73;;;7.13;;
14975;SDS011;7584;60.468;25.126;2024-02-23T10:55:56;10.63;;;6.27;;
14975;SDS011;7584;60.468;25.126;2024-02-23T10:58:24;14.57;;;7.30;;
14975;SDS011;7584;60.468;25.126;2024-02-23T11:00:50;13.77;;;8.23;;
14975;SDS011;7584;60.468;25.126;2024-02-23T11:03:15;13.03;;;7.60;;
14975;SDS011;7584;60.468;25.126;2024-02-23T11:05:41;11.97;;;7.20;;
14975;SDS011;7584;60.468;25.126;2024-02-23T11:08:07;14.13;;;7.27;;
14975;SDS011;7584;60.468;25.126;2024-02-23T11:10:48;12.93;;;7.53;;
14975;SDS011;7584;60.468;25.126;2024-02-23T11:13:13;16.97;;;7.63;;
14975;SDS011;7584;60.468;25.126;2024-02-23T11:15:41;14.57;;;7.83;;
14975;SDS011;7584;60.468;25.126;2024-02-23T11:18:23;13.30;;;8.13;;
14975;SDS011;7584;60.468;25.126;2024-02-23T11:20:54;12.83;;;7.13;;
14975;SDS011;7584;60.468;25.126;2024-02-23T11:23:20;12.00;;;7.43;;
14975;SDS011;7584;60.468;25.126;2024-02-23T11:25:58;16.23;;;8.53;;
14975;SDS011;7584;60.468;25.126;2024-02-23T11:28:24;13.67;;;7.37;;
14975;SDS011;7584;60.468;25.126;2024-02-23T11:30:49;13.00;;;7.37;;
14975;SDS011;7584;60.468;25.126;2024-02-23T11:33:15;12.67;;;6.60;;
14975;SDS011;7584;60.468;25.126;2024-02-23T11:35:50;17.17;;;7.53;;
14975;SDS011;7584;60.468;25.126;2024-02-23T11:38:16;13.47;;;7.13;;
14975;SDS011;7584;60.468;25.126;2024-02-23T11:40:43;16.07;;;8.00;;
14975;SDS011;7584;60.468;25.126;2024-02-23T11:43:08;14.13;;;7.90;;
14975;SDS011;7584;60.468;25.126;2024-02-23T11:45:35;12.20;;;6.97;;
14975;SDS011;7584;60.468;25.126;2024-02-23T11:48:00;15.27;;;7.10;;
14975;SDS011;7584;60.468;25.126;2024-02-23T11:50:25;10.93;;;7.17;;
14975;SDS011;7584;60.468;25.126;2024-02-23T11:52:51;14.60;;;8.03;;
14975;SDS011;7584;60.468;25.126;2024-02-23T11:55:19;15.57;;;7.43;;
14975;SDS011;7584;60.468;25.126;2024-02-23T11:57:48;15.43;;;7.07;;
14975;SDS011;7584;60.468;25.126;2024-02-23T12:00:13;15.67;;;8.50;;
14975;SDS011;7584;60.468;25.126;2024-02-23T12:02:39;17.87;;;7.50;;
14975;SDS011;7584;60.468;25.126;2024-02-23T12:05:04;14.07;;;8.13;;
14975;SDS011;7584;60.468;25.126;2024-02-23T12:07:29;12.83;;;8.10;;
14975;SDS011;7584;60.468;25.126;2024-02-23T12:09:55;15.63;;;8.60;;
14975;SDS011;7584;60.468;25.126;2024-02-23T12:12:21;15.60;;;8.40;;
14975;SDS011;7584;60.468;25.126;2024-02-23T12:14:47;17.10;;;8.40;;
14975;SDS011;7584;60.468;25.126;2024-02-23T12:17:12;14.83;;;8.33;;
14975;SDS011;7584;60.468;25.126;2024-02-23T12:19:41;16.17;;;8.90;;
14975;SDS011;7584;60.468;25.126;2024-02-23T12:22:06;14.70;;;9.10;;
14975;SDS011;7584;60.468;25.126;2024-02-23T12:24:32;20.60;;;8.93;;
14975;SDS011;7584;60.468;25.126;2024-02-23T12:26:57;15.93;;;8.30;;
14975;SDS011;7584;60.468;25.126;2024-02-23T12:29:23;17.97;;;9.23;;
14975;SDS011;7584;60.468;25.126;2024-02-23T12:31:49;18.40;;;9.23;;
14975;SDS011;7584;60.468;25.126;2024-02-23T12:34:14;20.33;;;9.97;;
14975;SDS011;7584;60.468;25.126;2024-02-23T12:36:39;19.23;;;10.30;;
14975;SDS011;7584;60.468;25.126;2024-02-23T12:39:05;19.03;;;10.40;;
14975;SDS011;7584;60.468;25.126;2024-02-23T12:41:30;18.43;;;8.83;;
14975;SDS011;7584;60.468;25.126;2024-02-23T12:43:56;21.40;;;10.17;;
14975;SDS011;7584;60.468;25.126;2024-02-23T12:46:21;16.97;;;9.37;;
14975;SDS011;7584;60.468;25.126;2024-02-23T12:48:48;16.70;;;9.27;;
14975;SDS011;7584;60.468;25.126;2024-02-23T12:51:14;20.87;;;10.43;;
14975;SDS011;7584;60.468;25.126;2024-02-23T12:53:40;22.53;;;10.33;;
14975;SDS011;7584;60.468;25.126;2024-02-23T12:56:09;18.73;;;9.40;;
14975;SDS011;7584;60.468;25.126;2024-02-23T12:58:36;17.13;;;9.73;;
14975;SDS011;7584;60.468;25.126;2024-02-23T13:01:02;19.50;;;10.57;;
14975;SDS011;7584;60.468;25.126;2024-02-23T13:03:27;18.00;;;10.10;;
14975;SDS011;7584;60.468;25.126;2024-02-23T13:05:54;17.00;;;9.93;;
14975;SDS011;7584;60.468;25.126;2024-02-23T13:08:19;17.13;;;10.37;;
14975;SDS011;7584;60.468;25.126;2024-02-23T13:10:44;18.97;;;10.07;;
14975;SDS011;7584;60.468;25.126;2024-02-23T13:13:10;20.60;;;11.03;;
14975;SDS011;7584;60.468;25.126;2024-02-23T13:15:35;18.63;;;10.03;;
14975;SDS011;7584;60.468;25.126;2024-02-23T13:18:03;17.13;;;10.23;;
14975;SDS011;7584;60.468;25.126;2024-02-23T13:20:28;24.10;;;11.33;;
14975;SDS011;7584;60.468;25.126;2024-02-23T13:22:54;20.80;;;10.07;;
14975;SDS011;7584;60.468;25.126;2024-02-23T13:25:19;22.43;;;10.30;;
14975;SDS011;7584;60.468;25.126;2024-02-23T13:27:44;19.23;;;10.97;;
14975;SDS011;7584;60.468;25.126;2024-02-23T13:30:10;18.87;;;10.37;;
14975;SDS011;7584;60.468;25.126;2024-02-23T13:32:35;23.77;;;11.40;;
14975;SDS011;7584;60.468;25.126;2024-02-23T13:35:00;18.57;;;10.43;;
14975;SDS011;7584;60.468;25.126;2024-02-23T13:37:29;22.43;;;11.50;;
14975;SDS011;7584;60.468;25.126;2024-02-23T13:39:54;19.23;;;10.83;;
14975;SDS011;7584;60.468;25.126;2024-02-23T13:42:20;24.30;;;12.20;;
14975;SDS011;7584;60.468;25.126;2024-02-23T13:44:45;23.90;;;11.07;;
14975;SDS011;7584;60.468;25.126;2024-02-23T13:47:12;21.93;;;11.00;;
14975;SDS011;7584;60.468;25.126;2024-02-23T13:49:37;21.10;;;11.80;;
14975;SDS011;7584;60.468;25.126;2024-02-23T13:52:02;26.13;;;11.23;;
14975;SDS011;7584;60.468;25.126;2024-02-23T13:54:28;20.83;;;10.67;;
14975;SDS011;7584;60.468;25.126;2024-02-23T13:56:53;21.73;;;11.20;;
14975;SDS011;7584;60.468;25.126;2024-02-23T13:59:18;19.33;;;11.27;;
14975;SDS011;7584;60.468;25.126;2024-02-23T14:01:44;19.03;;;10.97;;
14975;SDS011;7584;60.468;25.126;2024-02-23T14:04:10;18.70;;;11.10;;
14975;SDS011;7584;60.468;25.126;2024-02-23T14:06:35;19.43;;;10.93;;
14975;SDS011;7584;60.468;25.126;2024-02-23T14:09:00;18.53;;;11.10;;
14975;SDS011;7584;60.468;25.126;2024-02-23T14:11:28;20.00;;;11.47;;
14975;SDS011;7584;60.468;25.126;2024-02-23T14:13:53;19.97;;;11.70;;
14975;SDS011;7584;60.468;25.126;2024-02-23T14:16:19;21.00;;;10.93;;
14975;SDS011;7584;60.468;25.126;2024-02-23T14:18:44;22.07;;;11.30;;
14975;SDS011;7584;60.468;25.126;2024-02-23T14:21:10;22.33;;;11.73;;
14975;SDS011;7584;60.468;25.126;2024-02-23T14:23:35;24.97;;;12.90;;
14975;SDS011;7584;60.468;25.126;2024-02-23T14:26:01;21.73;;;11.33;;
14975;SDS011;7584;60.468;25.126;2024-02-23T14:28:26;19.87;;;10.63;;